Search for airport 
image banner adimage banner adimage banner ad
image banner ad

PN09 - Charles Cole Memorial Hospital

Located in Coudersport, United States

ICAO - PN09, IATA -

Data provided by Airmate  

General information

Coordinates: N41°46'18" W77°58'46"
Elevation is 1743 feet MSL.
Magnetic variation is -12° East
View others Airports in Pennsylvania

Operational data

Special qualification required
Current time UTC:
Current local time:
METAR: KELZ 091556Z AUTO 14006KT 10SM BKN036 OVC043 07/02 A2997 RMK AO2 SLP163 T00670022
View NOTAMs / SUP AIP / TFR affecting this airport [VIEW]
Communications frequencies: [VIEW]

Runways:

Airport contact information

Address: Coudersport United States

Satellite view of PN09